createdAt,value
2018-07-25T00:01:43.703Z,14.63
2018-07-25T00:04:16.778Z,15.93
2018-07-25T00:06:49.922Z,14.90
2018-07-25T00:09:23.263Z,13.33
2018-07-25T00:11:56.314Z,16.50
2018-07-25T00:14:29.440Z,14.25
2018-07-25T00:17:02.510Z,15.07
2018-07-25T00:19:35.597Z,15.43
2018-07-25T00:22:08.721Z,14.37
2018-07-25T00:24:42.180Z,12.97
2018-07-25T00:27:15.607Z,13.97
2018-07-25T00:29:48.652Z,13.00
2018-07-25T00:32:21.906Z,13.20
2018-07-25T00:34:55.820Z,13.83
2018-07-25T00:37:28.938Z,13.73
2018-07-25T00:40:02.127Z,13.57
2018-07-25T00:42:35.309Z,13.77
2018-07-25T00:45:08.514Z,14.77
2018-07-25T00:47:41.569Z,13.33
2018-07-25T00:50:15.690Z,12.83
2018-07-25T00:52:50.331Z,14.70
2018-07-25T00:55:23.541Z,22.93
2018-07-25T00:57:57.230Z,13.13
2018-07-25T01:00:30.297Z,18.65
2018-07-25T01:03:03.380Z,18.50
2018-07-25T01:05:36.593Z,19.13
2018-07-25T01:08:09.747Z,16.00
2018-07-25T01:10:44.779Z,16.67
2018-07-25T01:13:17.815Z,17.20
2018-07-25T01:15:51.009Z,20.10
2018-07-25T01:18:24.107Z,21.82
2018-07-25T01:20:57.257Z,24.57
2018-07-25T01:23:29.239Z,21.73
2018-07-25T01:26:02.482Z,21.63
2018-07-25T01:28:35.622Z,23.60
2018-07-25T01:31:08.806Z,20.00
2018-07-25T01:33:41.867Z,25.10
2018-07-25T01:36:13.558Z,22.40
2018-07-25T01:38:46.719Z,25.60
2018-07-25T01:41:19.839Z,29.83
2018-07-25T01:43:52.987Z,29.17
2018-07-25T01:46:26.068Z,25.00
2018-07-25T01:48:59.839Z,30.90
2018-07-25T01:51:34.649Z,27.05
2018-07-25T01:54:07.776Z,23.67
2018-07-25T01:56:40.825Z,26.00
2018-07-25T01:59:14.764Z,25.70
2018-07-25T02:01:47.890Z,31.97
2018-07-25T02:04:21.703Z,29.60
2018-07-25T02:06:54.924Z,40.27
2018-07-25T02:09:28.152Z,31.48
2018-07-25T02:12:01.266Z,31.20
2018-07-25T02:14:34.493Z,31.50
2018-07-25T02:17:07.739Z,30.27
2018-07-25T02:19:42.137Z,35.70
2018-07-25T02:22:15.766Z,35.73
2018-07-25T02:24:49.722Z,36.43
2018-07-25T02:27:23.076Z,39.00
2018-07-25T02:29:56.209Z,38.15
2018-07-25T02:32:29.301Z,35.85
2018-07-25T02:35:02.588Z,46.03
2018-07-25T02:37:35.781Z,41.60
2018-07-25T02:40:08.968Z,41.43
2018-07-25T02:42:42.673Z,41.13
2018-07-25T02:45:16.393Z,45.83
2018-07-25T02:47:50.184Z,41.90
2018-07-25T02:50:24.257Z,47.67
2018-07-25T02:52:57.854Z,47.20
2018-07-25T02:55:31.042Z,49.77
2018-07-25T02:58:04.142Z,48.63
2018-07-25T03:00:37.289Z,51.43
2018-07-25T03:03:11.260Z,59.80
2018-07-25T03:05:45.035Z,53.00
2018-07-25T03:08:19.851Z,60.20
2018-07-25T03:10:55.856Z,54.10
2018-07-25T03:13:29.684Z,54.73
2018-07-25T03:16:07.408Z,53.87
2018-07-25T03:18:40.904Z,52.20
2018-07-25T03:43:50.891Z,55.80
2018-07-25T03:46:24.674Z,56.47
2018-07-25T03:48:58.151Z,64.10
2018-07-25T03:51:31.869Z,68.28
2018-07-25T03:54:05.517Z,61.07
2018-07-25T03:56:39.081Z,59.27
2018-07-25T03:59:12.489Z,58.93
2018-07-25T04:01:47.162Z,57.20
2018-07-25T04:04:22.370Z,56.30
2018-07-25T04:06:55.978Z,58.33
2018-07-25T04:09:29.103Z,58.20
2018-07-25T04:12:02.629Z,60.37
2018-07-25T04:14:36.533Z,54.93
2018-07-25T04:17:11.295Z,52.93
2018-07-25T04:19:44.760Z,54.00
2018-07-25T04:22:18.175Z,55.47
2018-07-25T04:24:51.475Z,56.07
2018-07-25T04:27:24.958Z,54.07
2018-07-25T04:29:58.957Z,56.50
2018-07-25T04:32:32.454Z,61.30
2018-07-25T04:35:05.850Z,51.07
2018-07-25T04:37:38.946Z,53.60
2018-07-25T04:40:12.156Z,58.33
2018-07-25T04:42:45.264Z,52.07
2018-07-25T04:45:18.479Z,53.90
2018-07-25T04:47:51.807Z,51.73
2018-07-25T04:50:24.955Z,56.00
2018-07-25T04:52:58.020Z,54.57
2018-07-25T04:55:31.330Z,51.33
2018-07-25T04:58:04.917Z,50.20
2018-07-25T05:00:38.665Z,51.53
2018-07-25T05:03:12.427Z,52.93
2018-07-25T05:05:45.790Z,56.40
2018-07-25T05:08:19.539Z,53.87
2018-07-25T05:10:55.091Z,49.47
2018-07-25T05:13:28.807Z,54.70
2018-07-25T05:16:02.163Z,52.83
2018-07-25T05:18:35.836Z,49.10
2018-07-25T05:21:09.532Z,51.63
2018-07-25T05:23:42.925Z,53.07
2018-07-25T05:26:16.402Z,50.17
2018-07-25T05:28:50.170Z,50.93
2018-07-25T05:31:23.645Z,51.30
2018-07-25T05:33:56.971Z,54.17
2018-07-25T05:36:30.431Z,53.00
2018-07-25T05:39:04.319Z,50.20
2018-07-25T05:41:38.073Z,48.30
2018-07-25T05:44:12.176Z,53.87
2018-07-25T05:46:45.683Z,49.93
2018-07-25T05:49:17.616Z,52.03
2018-07-25T05:51:50.970Z,51.53
2018-07-25T05:54:24.450Z,44.70
2018-07-25T05:56:59.341Z,49.97
2018-07-25T05:59:33.181Z,49.50
2018-07-25T06:02:07.434Z,45.50
2018-07-25T06:04:41.189Z,47.70
2018-07-25T06:07:16.121Z,49.73
2018-07-25T06:09:50.023Z,47.50
2018-07-25T06:12:23.806Z,50.23
2018-07-25T06:14:59.853Z,48.17
2018-07-25T06:17:33.577Z,47.33
2018-07-25T06:20:07.489Z,49.77
2018-07-25T06:22:41.664Z,50.40
2018-07-25T06:25:15.731Z,46.15
2018-07-25T06:27:49.967Z,48.60
2018-07-25T06:30:22.362Z,47.33
2018-07-25T06:32:55.925Z,48.03
2018-07-25T06:35:31.678Z,49.40
2018-07-25T06:38:05.422Z,46.70
2018-07-25T06:40:39.551Z,46.03
2018-07-25T06:43:13.413Z,47.63
2018-07-25T06:45:47.277Z,45.40
2018-07-25T06:48:21.287Z,49.90
2018-07-25T06:50:55.249Z,44.00
2018-07-25T06:53:28.977Z,49.50
2018-07-25T06:56:03.853Z,43.93
2018-07-25T06:58:38.046Z,52.00
2018-07-25T07:01:11.838Z,48.40
2018-07-25T07:03:45.635Z,47.50
2018-07-25T07:06:19.386Z,50.00
2018-07-25T07:08:53.192Z,47.10
2018-07-25T07:11:27.382Z,45.13
2018-07-25T07:14:01.119Z,45.00
2018-07-25T07:16:34.859Z,46.50
2018-07-25T07:19:08.728Z,46.23
2018-07-25T07:21:42.463Z,48.97
2018-07-25T07:24:16.517Z,48.10
2018-07-25T07:26:50.389Z,46.00
2018-07-25T07:29:24.154Z,47.53
2018-07-25T07:31:57.923Z,45.50
2018-07-25T07:34:31.776Z,52.10
2018-07-25T07:37:06.380Z,50.43
2018-07-25T07:39:40.185Z,46.23
2018-07-25T07:42:14.177Z,49.40
2018-07-25T07:44:47.995Z,50.90
2018-07-25T07:47:21.738Z,48.93
2018-07-25T07:49:56.995Z,52.63
2018-07-25T07:52:30.854Z,47.90
2018-07-25T07:55:04.614Z,47.80
2018-07-25T07:57:40.215Z,47.30
2018-07-25T08:00:14.926Z,46.57
2018-07-25T08:02:49.672Z,53.90
2018-07-25T08:05:23.550Z,49.20
2018-07-25T08:07:57.557Z,47.50
2018-07-25T08:10:31.346Z,49.23
2018-07-25T08:13:05.476Z,49.57
2018-07-25T08:15:39.316Z,49.50
2018-07-25T08:18:13.110Z,48.67
2018-07-25T08:20:47.154Z,48.87
2018-07-25T08:23:20.912Z,46.97
2018-07-25T08:25:54.700Z,50.50
2018-07-25T08:28:29.479Z,48.00
2018-07-25T08:31:04.455Z,47.23
2018-07-25T08:33:38.794Z,50.67
2018-07-25T08:36:12.596Z,48.93
2018-07-25T08:38:47.528Z,47.93
2018-07-25T08:41:21.379Z,47.50
2018-07-25T08:46:32.126Z,47.10
2018-07-25T08:49:07.023Z,50.80
2018-07-25T08:51:41.264Z,50.03
2018-07-25T08:54:16.818Z,50.03
2018-07-25T08:56:50.607Z,48.23
2018-07-25T08:59:26.995Z,49.37
2018-07-25T09:02:00.867Z,48.77
2018-07-25T09:04:34.947Z,47.87
2018-07-25T09:07:08.798Z,48.17
2018-07-25T09:09:44.118Z,49.03
2018-07-25T09:12:18.117Z,48.63
2018-07-25T09:14:53.243Z,46.63
2018-07-25T09:17:27.094Z,50.97
2018-07-25T09:20:01.049Z,49.70
2018-07-25T09:22:34.759Z,49.47
2018-07-25T09:25:08.749Z,47.53
2018-07-25T09:27:44.884Z,46.37
2018-07-25T09:30:19.207Z,47.97
2018-07-25T09:32:53.522Z,49.33
2018-07-25T09:35:27.739Z,47.57
2018-07-25T09:38:01.661Z,49.30
2018-07-25T09:40:35.622Z,47.20
2018-07-25T09:43:10.782Z,46.73
2018-07-25T09:45:44.663Z,47.27
2018-07-25T09:48:18.816Z,46.30
2018-07-25T09:50:52.967Z,48.77
2018-07-25T09:53:26.747Z,47.33
2018-07-25T09:56:02.583Z,46.57
2018-07-25T09:58:36.604Z,50.27
2018-07-25T10:01:11.292Z,44.73
2018-07-25T10:03:45.263Z,44.10
2018-07-25T10:06:22.403Z,43.37
2018-07-25T10:08:56.348Z,45.20
2018-07-25T10:11:31.107Z,46.23
2018-07-25T10:14:06.816Z,41.60
2018-07-25T10:16:41.677Z,45.47
2018-07-25T10:19:19.029Z,41.58
2018-07-25T10:21:54.771Z,41.43
2018-07-25T10:24:30.593Z,44.20
2018-07-25T10:27:06.778Z,42.60
2018-07-25T10:29:42.915Z,42.47
2018-07-25T10:32:21.983Z,38.70
2018-07-25T10:34:56.170Z,42.47
2018-07-25T10:37:31.096Z,37.70
2018-07-25T10:40:05.224Z,38.20
2018-07-25T10:45:19.283Z,39.77
2018-07-25T10:47:53.109Z,38.07
2018-07-25T10:50:27.293Z,39.03
2018-07-25T10:53:01.273Z,36.43
2018-07-25T10:55:35.812Z,38.53
2018-07-25T10:58:13.079Z,39.30
2018-07-25T11:00:48.189Z,33.73
2018-07-25T16:15:53.176Z,18.13
2018-07-25T16:18:27.868Z,20.55
2018-07-25T16:21:01.006Z,20.70
2018-07-25T16:23:34.179Z,16.93
2018-07-25T16:26:07.399Z,16.97
2018-07-25T16:28:40.607Z,18.03
2018-07-25T16:31:14.791Z,20.53
2018-07-25T16:33:47.974Z,17.80
2018-07-25T16:36:21.105Z,16.17
2018-07-25T16:38:54.232Z,17.30
2018-07-25T16:41:27.365Z,17.95
2018-07-25T16:44:00.656Z,18.67
2018-07-25T16:46:33.817Z,17.23
2018-07-25T16:49:07.332Z,15.80
2018-07-25T16:51:40.398Z,16.17
2018-07-25T16:54:13.691Z,17.60
2018-07-25T16:56:46.764Z,17.90
2018-07-25T16:59:19.991Z,17.90
2018-07-25T17:01:53.629Z,17.43
2018-07-25T17:04:26.852Z,17.67
2018-07-25T17:07:00.005Z,17.23
2018-07-25T17:09:33.168Z,23.65
2018-07-25T17:12:06.324Z,18.77
2018-07-25T17:14:39.385Z,19.53
2018-07-25T17:17:12.749Z,19.30
2018-07-25T17:19:45.850Z,18.97
2018-07-25T17:22:18.957Z,19.83
2018-07-25T17:24:52.635Z,21.10
2018-07-25T17:27:25.756Z,18.15
2018-07-25T17:29:59.112Z,19.13
2018-07-25T17:32:33.691Z,21.73
2018-07-25T17:35:07.983Z,19.60
2018-07-25T17:37:41.089Z,20.60
2018-07-25T17:40:15.125Z,19.30
2018-07-25T17:42:48.183Z,25.00
2018-07-25T17:45:21.948Z,18.03
2018-07-25T17:47:54.979Z,19.63
2018-07-25T17:50:28.110Z,21.17
2018-07-25T17:53:01.243Z,19.70
2018-07-25T17:55:34.553Z,23.67
2018-07-25T17:58:07.772Z,21.03
2018-07-25T18:00:41.291Z,19.37
2018-07-25T18:03:15.068Z,20.00
2018-07-25T18:05:48.129Z,19.13
2018-07-25T18:08:21.211Z,23.35
2018-07-25T18:10:54.422Z,19.60
2018-07-25T18:14:31.878Z,21.07
2018-07-25T18:17:05.046Z,23.17
2018-07-25T18:19:38.125Z,20.37
2018-07-25T18:22:11.626Z,20.30
2018-07-25T18:24:45.102Z,20.07
2018-07-25T18:27:18.283Z,23.00
2018-07-25T18:29:51.410Z,21.07
2018-07-25T18:32:24.518Z,20.80
2018-07-25T18:34:57.670Z,20.20
2018-07-25T18:37:31.498Z,21.97
2018-07-25T18:40:04.633Z,22.90
2018-07-25T18:42:37.829Z,21.13
2018-07-25T18:45:10.976Z,19.27
2018-07-25T18:47:44.159Z,20.83
2018-07-25T18:50:17.380Z,20.13
2018-07-25T18:52:50.405Z,20.50
2018-07-25T18:55:23.618Z,22.35
2018-07-25T18:57:56.728Z,21.90
2018-07-25T19:00:29.783Z,19.50
2018-07-25T19:03:04.098Z,22.27
2018-07-25T19:05:37.246Z,20.13
2018-07-25T19:08:10.969Z,19.23
2018-07-25T19:10:44.012Z,19.60
2018-07-25T19:13:21.350Z,22.60
2018-07-25T19:15:54.392Z,21.27
2018-07-25T19:18:27.534Z,20.93
2018-07-25T19:21:03.014Z,20.80
2018-07-25T19:23:36.047Z,20.03
2018-07-25T19:26:09.163Z,21.37
2018-07-25T19:28:42.259Z,21.97
2018-07-25T19:31:15.409Z,20.50
2018-07-25T19:33:48.440Z,19.80
2018-07-25T19:36:21.511Z,21.83
2018-07-25T19:38:55.400Z,23.00
2018-07-25T19:41:28.477Z,20.67
2018-07-25T19:44:01.639Z,20.50
2018-07-25T19:46:34.836Z,19.60
2018-07-25T19:49:07.980Z,48.90
2018-07-25T19:51:41.114Z,20.80
2018-07-25T19:54:15.490Z,18.70
2018-07-25T19:56:53.026Z,18.40
2018-07-25T19:59:26.154Z,24.95
2018-07-25T20:01:59.249Z,19.53
2018-07-25T20:04:32.335Z,19.57
2018-07-25T20:07:05.469Z,20.70
2018-07-25T20:09:38.623Z,20.43
2018-07-25T20:12:11.732Z,19.10
2018-07-25T20:14:48.910Z,21.27
2018-07-25T20:17:22.023Z,20.43
2018-07-25T20:19:55.282Z,17.47
2018-07-25T20:22:29.948Z,25.53
2018-07-25T20:25:03.105Z,20.73
2018-07-25T20:27:36.492Z,18.70
2018-07-25T20:30:11.599Z,18.50
2018-07-25T20:32:44.703Z,18.27
2018-07-25T20:35:18.259Z,20.07
2018-07-25T20:37:54.108Z,18.73
2018-07-25T20:40:27.251Z,22.00
2018-07-25T20:43:00.347Z,19.47
2018-07-25T20:45:34.483Z,20.73
2018-07-25T20:48:07.678Z,19.83
2018-07-25T20:50:40.760Z,19.80
2018-07-25T20:53:13.319Z,18.30
2018-07-25T20:55:46.419Z,19.83
2018-07-25T20:58:19.465Z,21.60
2018-07-25T21:00:52.636Z,17.33
2018-07-25T21:03:26.726Z,19.43
2018-07-25T21:06:00.559Z,17.40
2018-07-25T21:08:33.693Z,18.57
2018-07-25T21:11:06.785Z,17.03
2018-07-25T21:13:39.768Z,16.03
2018-07-25T21:16:13.187Z,21.80
2018-07-25T21:18:48.959Z,17.33
2018-07-25T21:21:22.126Z,18.53
2018-07-25T21:23:55.693Z,18.93
2018-07-25T21:26:28.769Z,22.87
2018-07-25T21:29:01.965Z,17.83
2018-07-25T21:31:35.073Z,19.10
2018-07-25T21:34:08.046Z,17.00
2018-07-25T21:36:41.292Z,16.27
2018-07-25T21:39:15.555Z,18.90
2018-07-25T21:41:48.667Z,17.30
2018-07-25T21:44:21.810Z,16.90
2018-07-25T21:46:54.903Z,16.03
2018-07-25T21:49:29.914Z,18.00
2018-07-25T21:52:03.052Z,16.70
2018-07-25T21:54:36.181Z,18.33
2018-07-25T21:57:09.398Z,17.50
2018-07-25T21:59:42.481Z,17.83
2018-07-25T22:02:15.691Z,17.20
2018-07-25T22:04:49.890Z,18.37
2018-07-25T22:07:23.018Z,16.07
2018-07-25T22:09:56.017Z,17.32
2018-07-25T22:12:29.106Z,15.55
2018-07-25T22:15:02.177Z,17.07
2018-07-25T22:17:35.252Z,18.27
2018-07-25T22:20:09.185Z,18.23
2018-07-25T22:22:42.622Z,15.63
2018-07-25T22:25:17.490Z,19.70
2018-07-25T22:27:50.576Z,15.87
2018-07-25T22:30:23.673Z,17.43
2018-07-25T22:32:57.220Z,16.37
2018-07-25T22:35:30.365Z,21.93
2018-07-25T22:38:03.493Z,16.97
2018-07-25T22:40:36.600Z,16.17
2018-07-25T22:43:10.699Z,16.47
2018-07-25T22:45:45.638Z,20.07
2018-07-25T22:48:18.689Z,14.43
2018-07-25T22:50:51.718Z,17.00
2018-07-25T22:53:24.823Z,16.95
2018-07-25T22:55:58.071Z,15.32
2018-07-25T22:58:32.106Z,16.50
2018-07-25T23:01:05.207Z,16.83
2018-07-25T23:03:37.982Z,16.80
2018-07-25T23:06:11.055Z,15.30
2018-07-25T23:08:44.150Z,17.60
2018-07-25T23:11:17.318Z,16.23
2018-07-25T23:13:50.430Z,16.13
2018-07-25T23:16:23.772Z,14.90
2018-07-25T23:18:57.476Z,17.40
2018-07-25T23:21:30.669Z,19.98
2018-07-25T23:24:04.658Z,16.03
2018-07-25T23:26:37.930Z,17.30
2018-07-25T23:29:11.033Z,15.67
2018-07-25T23:31:44.748Z,14.53
2018-07-25T23:34:17.855Z,15.43
2018-07-25T23:36:51.028Z,16.20
2018-07-25T23:39:24.225Z,20.00
2018-07-25T23:41:58.382Z,15.53
2018-07-25T23:44:31.511Z,16.87
2018-07-25T23:47:05.047Z,25.13
2018-07-25T23:49:38.230Z,16.57
2018-07-25T23:52:11.399Z,15.20
2018-07-25T23:54:44.598Z,15.30
2018-07-25T23:57:17.780Z,15.27
2018-07-25T23:59:51.344Z,13.90
